sensor_id;sensor_type;location;lat;lon;timestamp;pressure;altitude;pressure_sealevel;temperature;humidity
27805;BME280;15183;51.350;11.102;2023-04-21T00:02:25;100102.53;;;11.68;66.09
27805;BME280;15183;51.350;11.102;2023-04-21T00:04:52;100123.91;;;11.73;66.16
27805;BME280;15183;51.350;11.102;2023-04-21T00:07:21;100116.56;;;11.76;66.36
27805;BME280;15183;51.350;11.102;2023-04-21T00:09:47;100113.97;;;11.69;66.29
27805;BME280;15183;51.350;11.102;2023-04-21T00:12:14;100102.19;;;11.65;66.45
27805;BME280;15183;51.350;11.102;2023-04-21T00:14:40;100117.59;;;11.75;66.85
27805;BME280;15183;51.350;11.102;2023-04-21T00:17:07;100121.25;;;11.73;66.62
27805;BME280;15183;51.350;11.102;2023-04-21T00:19:33;100104.63;;;11.66;66.46
27805;BME280;15183;51.350;11.102;2023-04-21T00:22:00;100096.66;;;11.66;66.60
27805;BME280;15183;51.350;11.102;2023-04-21T00:24:26;100089.97;;;11.64;66.51
27805;BME280;15183;51.350;11.102;2023-04-21T00:26:53;100117.59;;;11.75;66.47
27805;BME280;15183;51.350;11.102;2023-04-21T00:29:19;100110.75;;;11.67;66.54
27805;BME280;15183;51.350;11.102;2023-04-21T00:31:45;100090.88;;;11.57;66.92
27805;BME280;15183;51.350;11.102;2023-04-21T00:34:12;100098.16;;;11.62;66.75
27805;BME280;15183;51.350;11.102;2023-04-21T00:36:38;100090.50;;;11.54;66.63
27805;BME280;15183;51.350;11.102;2023-04-21T00:39:05;100100.22;;;11.60;66.58
27805;BME280;15183;51.350;11.102;2023-04-21T00:41:32;100114.66;;;11.64;66.41
27805;BME280;15183;51.350;11.102;2023-04-21T00:44:05;100120.66;;;11.60;66.50
27805;BME280;15183;51.350;11.102;2023-04-21T00:46:32;100098.34;;;11.49;66.35
27805;BME280;15183;51.350;11.102;2023-04-21T00:49:02;100092.00;;;11.50;66.64
27805;BME280;15183;51.350;11.102;2023-04-21T00:51:29;100118.72;;;11.67;66.47
27805;BME280;15183;51.350;11.102;2023-04-21T00:53:58;100113.28;;;11.62;67.06
27805;BME280;15183;51.350;11.102;2023-04-21T00:56:25;100098.69;;;11.52;66.94
27805;BME280;15183;51.350;11.102;2023-04-21T00:58:53;100116.72;;;11.62;67.09
27805;BME280;15183;51.350;11.102;2023-04-21T01:01:19;100105.38;;;11.55;66.77
27805;BME280;15183;51.350;11.102;2023-04-21T01:03:46;100122.03;;;11.62;66.94
27805;BME280;15183;51.350;11.102;2023-04-21T01:06:12;100124.69;;;11.62;67.18
27805;BME280;15183;51.350;11.102;2023-04-21T01:08:39;100109.22;;;11.59;66.92
27805;BME280;15183;51.350;11.102;2023-04-21T01:11:11;100092.06;;;11.43;67.04
27805;BME280;15183;51.350;11.102;2023-04-21T01:13:38;100103.66;;;11.49;67.16
27805;BME280;15183;51.350;11.102;2023-04-21T01:16:08;100118.66;;;11.55;66.94
27805;BME280;15183;51.350;11.102;2023-04-21T01:18:41;100104.69;;;11.48;67.10
27805;BME280;15183;51.350;11.102;2023-04-21T01:21:07;100100.94;;;11.37;67.23
27805;BME280;15183;51.350;11.102;2023-04-21T01:23:34;100103.59;;;11.37;67.17
27805;BME280;15183;51.350;11.102;2023-04-21T01:26:00;100111.53;;;11.37;67.39
27805;BME280;15183;51.350;11.102;2023-04-21T01:28:27;100102.28;;;11.27;67.36
27805;BME280;15183;51.350;11.102;2023-04-21T01:30:53;100099.03;;;11.25;67.38
27805;BME280;15183;51.350;11.102;2023-04-21T01:33:20;100090.66;;;11.10;67.76
27805;BME280;15183;51.350;11.102;2023-04-21T01:35:47;100106.34;;;11.11;67.47
27805;BME280;15183;51.350;11.102;2023-04-21T01:38:14;100084.47;;;10.97;67.71
27805;BME280;15183;51.350;11.102;2023-04-21T01:40:47;100094.44;;;11.02;67.97
27805;BME280;15183;51.350;11.102;2023-04-21T01:43:16;100081.91;;;10.91;68.03
27805;BME280;15183;51.350;11.102;2023-04-21T01:45:43;100107.09;;;11.00;68.28
27805;BME280;15183;51.350;11.102;2023-04-21T01:48:10;100083.91;;;10.95;68.44
27805;BME280;15183;51.350;11.102;2023-04-21T01:50:36;100070.13;;;10.86;68.30
27805;BME280;15183;51.350;11.102;2023-04-21T01:53:03;100096.25;;;11.02;68.66
27805;BME280;15183;51.350;11.102;2023-04-21T01:55:29;100074.97;;;10.90;68.15
27805;BME280;15183;51.350;11.102;2023-04-21T01:57:55;100080.88;;;10.92;68.26
27805;BME280;15183;51.350;11.102;2023-04-21T02:00:25;100095.03;;;11.04;68.19
27805;BME280;15183;51.350;11.102;2023-04-21T02:02:52;100083.81;;;11.02;68.12
27805;BME280;15183;51.350;11.102;2023-04-21T02:05:18;100087.50;;;11.01;68.26
27805;BME280;15183;51.350;11.102;2023-04-21T02:07:45;100090.75;;;11.03;68.41
27805;BME280;15183;51.350;11.102;2023-04-21T02:10:11;100075.94;;;10.95;68.53
27805;BME280;15183;51.350;11.102;2023-04-21T02:12:38;100098.13;;;11.01;68.29
27805;BME280;15183;51.350;11.102;2023-04-21T02:15:05;100088.31;;;11.02;68.54
27805;BME280;15183;51.350;11.102;2023-04-21T02:17:32;100010.44;;;10.47;68.43
27805;BME280;15183;51.350;11.102;2023-04-21T02:19:58;100104.16;;;11.08;68.44
27805;BME280;15183;51.350;11.102;2023-04-21T02:22:25;100098.84;;;11.08;68.59
27805;BME280;15183;51.350;11.102;2023-04-21T02:24:51;100078.97;;;10.99;68.21
27805;BME280;15183;51.350;11.102;2023-04-21T02:27:18;100093.53;;;11.08;68.45
27805;BME280;15183;51.350;11.102;2023-04-21T02:29:44;100110.16;;;11.15;68.37
27805;BME280;15183;51.350;11.102;2023-04-21T02:32:10;100095.94;;;11.10;68.20
27805;BME280;15183;51.350;11.102;2023-04-21T02:34:37;100105.25;;;11.19;68.23
27805;BME280;15183;51.350;11.102;2023-04-21T02:37:03;100092.84;;;11.13;68.49
27805;BME280;15183;51.350;11.102;2023-04-21T02:39:30;100085.34;;;11.10;68.27
27805;BME280;15183;51.350;11.102;2023-04-21T02:41:56;100108.25;;;11.23;68.01
27805;BME280;15183;51.350;11.102;2023-04-21T02:44:23;100088.38;;;11.13;68.37
27805;BME280;15183;51.350;11.102;2023-04-21T02:46:49;100109.56;;;11.32;68.33
27805;BME280;15183;51.350;11.102;2023-04-21T02:49:16;100103.31;;;11.26;68.20
27805;BME280;15183;51.350;11.102;2023-04-21T02:51:42;100073.03;;;11.15;68.44
27805;BME280;15183;51.350;11.102;2023-04-21T02:54:09;100096.53;;;11.31;68.28
27805;BME280;15183;51.350;11.102;2023-04-21T02:56:36;100109.94;;;11.36;68.08
27805;BME280;15183;51.350;11.102;2023-04-21T02:59:02;100102.41;;;11.33;68.41
27805;BME280;15183;51.350;11.102;2023-04-21T03:01:28;100025.81;;;10.75;67.92
27805;BME280;15183;51.350;11.102;2023-04-21T03:03:55;100063.84;;;10.99;67.56
27805;BME280;15183;51.350;11.102;2023-04-21T03:06:21;100082.94;;;11.08;67.78
27805;BME280;15183;51.350;11.102;2023-04-21T03:08:48;100079.00;;;11.11;67.76
27805;BME280;15183;51.350;11.102;2023-04-21T03:11:14;100085.47;;;11.15;67.59
27805;BME280;15183;51.350;11.102;2023-04-21T03:13:41;100099.25;;;11.24;67.64
27805;BME280;15183;51.350;11.102;2023-04-21T03:16:07;100073.81;;;11.04;67.93
27805;BME280;15183;51.350;11.102;2023-04-21T03:18:34;100104.56;;;11.24;67.50
27805;BME280;15183;51.350;11.102;2023-04-21T03:21:01;100101.56;;;11.20;67.75
27805;BME280;15183;51.350;11.102;2023-04-21T03:23:27;100103.97;;;11.22;67.59
27805;BME280;15183;51.350;11.102;2023-04-21T03:25:54;100075.88;;;11.02;67.67
27805;BME280;15183;51.350;11.102;2023-04-21T03:28:20;100100.72;;;11.20;67.71
27805;BME280;15183;51.350;11.102;2023-04-21T03:30:46;100101.19;;;11.17;67.45
27805;BME280;15183;51.350;11.102;2023-04-21T03:33:13;100089.84;;;11.09;67.52
27805;BME280;15183;51.350;11.102;2023-04-21T03:35:39;100084.31;;;11.11;67.63
27805;BME280;15183;51.350;11.102;2023-04-21T03:38:06;100091.03;;;11.13;67.61
27805;BME280;15183;51.350;11.102;2023-04-21T03:40:32;100065.19;;;10.90;67.63
27805;BME280;15183;51.350;11.102;2023-04-21T03:42:58;100076.31;;;10.99;67.88
27805;BME280;15183;51.350;11.102;2023-04-21T03:45:25;100087.78;;;11.11;67.80
27805;BME280;15183;51.350;11.102;2023-04-21T03:47:54;100089.28;;;11.07;67.62
27805;BME280;15183;51.350;11.102;2023-04-21T03:50:22;100064.69;;;11.00;67.77
27805;BME280;15183;51.350;11.102;2023-04-21T03:52:48;100048.03;;;10.93;67.86
27805;BME280;15183;51.350;11.102;2023-04-21T03:55:15;100059.19;;;11.13;67.81
27805;BME280;15183;51.350;11.102;2023-04-21T03:57:41;99987.88;;;10.75;67.80
27805;BME280;15183;51.350;11.102;2023-04-21T04:00:09;100083.19;;;11.37;67.65
27805;BME280;15183;51.350;11.102;2023-04-21T04:02:36;100086.75;;;11.43;67.86
27805;BME280;15183;51.350;11.102;2023-04-21T04:05:03;100079.63;;;11.43;67.75
27805;BME280;15183;51.350;11.102;2023-04-21T04:07:31;99987.22;;;10.79;67.64
27805;BME280;15183;51.350;11.102;2023-04-21T04:09:58;100077.19;;;11.42;67.56
27805;BME280;15183;51.350;11.102;2023-04-21T04:12:25;100048.53;;;11.20;67.35
27805;BME280;15183;51.350;11.102;2023-04-21T04:14:51;100069.41;;;11.28;67.58
27805;BME280;15183;51.350;11.102;2023-04-21T04:17:18;100072.06;;;11.28;67.73
27805;BME280;15183;51.350;11.102;2023-04-21T04:19:44;100089.94;;;11.33;67.53
27805;BME280;15183;51.350;11.102;2023-04-21T04:22:11;100066.13;;;11.14;67.79
27805;BME280;15183;51.350;11.102;2023-04-21T04:24:37;100097.47;;;11.36;67.65
27805;BME280;15183;51.350;11.102;2023-04-21T04:27:04;100096.78;;;11.41;67.48
27805;BME280;15183;51.350;11.102;2023-04-21T04:29:31;100066.19;;;11.26;67.52
27805;BME280;15183;51.350;11.102;2023-04-21T04:31:57;100097.50;;;11.48;67.54
27805;BME280;15183;51.350;11.102;2023-04-21T04:34:26;100073.75;;;11.41;67.69
27805;BME280;15183;51.350;11.102;2023-04-21T04:36:53;100092.25;;;11.60;67.60
27805;BME280;15183;51.350;11.102;2023-04-21T04:39:22;100104.31;;;11.75;67.78
27805;BME280;15183;51.350;11.102;2023-04-21T04:41:48;100073.94;;;11.70;67.65
27805;BME280;15183;51.350;11.102;2023-04-21T04:44:14;100009.34;;;11.34;67.89
27805;BME280;15183;51.350;11.102;2023-04-21T04:46:42;100026.03;;;11.65;67.59
27805;BME280;15183;51.350;11.102;2023-04-21T04:49:09;100088.72;;;12.21;67.77
27805;BME280;15183;51.350;11.102;2023-04-21T04:51:35;100073.59;;;12.21;67.61
27805;BME280;15183;51.350;11.102;2023-04-21T04:54:02;100083.75;;;12.48;68.05
27805;BME280;15183;51.350;11.102;2023-04-21T04:56:29;100087.53;;;12.64;67.48
27805;BME280;15183;51.350;11.102;2023-04-21T04:58:55;100042.03;;;12.61;67.94
27805;BME280;15183;51.350;11.102;2023-04-21T05:01:22;100085.72;;;13.06;67.63
27805;BME280;15183;51.350;11.102;2023-04-21T05:03:55;100102.94;;;13.27;67.39
27805;BME280;15183;51.350;11.102;2023-04-21T05:06:22;100058.53;;;13.15;66.94
27805;BME280;15183;51.350;11.102;2023-04-21T05:08:49;100089.78;;;13.49;67.17
27805;BME280;15183;51.350;11.102;2023-04-21T05:11:15;100100.09;;;13.74;66.83
27805;BME280;15183;51.350;11.102;2023-04-21T05:13:41;100102.50;;;13.93;66.80
27805;BME280;15183;51.350;11.102;2023-04-21T05:16:08;100093.66;;;14.04;66.86
27805;BME280;15183;51.350;11.102;2023-04-21T05:18:36;100112.88;;;14.24;66.71
27805;BME280;15183;51.350;11.102;2023-04-21T05:21:03;100102.28;;;14.29;66.59
27805;BME280;15183;51.350;11.102;2023-04-21T05:23:29;100104.03;;;14.40;66.09
27805;BME280;15183;51.350;11.102;2023-04-21T05:25:56;100105.09;;;14.39;66.18
27805;BME280;15183;51.350;11.102;2023-04-21T05:28:22;100123.31;;;14.65;65.63
27805;BME280;15183;51.350;11.102;2023-04-21T05:30:49;100095.41;;;14.50;65.73
27805;BME280;15183;51.350;11.102;2023-04-21T05:33:17;100123.19;;;14.71;65.82
27805;BME280;15183;51.350;11.102;2023-04-21T05:35:44;100133.00;;;14.88;65.83
27805;BME280;15183;51.350;11.102;2023-04-21T05:38:11;100110.28;;;14.85;65.59
27805;BME280;15183;51.350;11.102;2023-04-21T05:40:37;100129.47;;;15.04;65.13
27805;BME280;15183;51.350;11.102;2023-04-21T05:43:04;100091.38;;;14.87;65.40
27805;BME280;15183;51.350;11.102;2023-04-21T05:45:30;100115.69;;;15.13;65.09
27805;BME280;15183;51.350;11.102;2023-04-21T05:47:56;100131.59;;;15.25;64.78
27805;BME280;15183;51.350;11.102;2023-04-21T05:50:23;100124.97;;;15.32;65.45
27805;BME280;15183;51.350;11.102;2023-04-21T05:52:51;100129.13;;;15.45;65.48
27805;BME280;15183;51.350;11.102;2023-04-21T05:55:17;100115.41;;;15.59;64.99
27805;BME280;15183;51.350;11.102;2023-04-21T05:57:44;100111.16;;;15.63;64.54
27805;BME280;15183;51.350;11.102;2023-04-21T06:00:11;100131.19;;;15.88;64.50
27805;BME280;15183;51.350;11.102;2023-04-21T06:02:37;100118.28;;;15.85;64.21
27805;BME280;15183;51.350;11.102;2023-04-21T06:05:04;100103.41;;;15.89;63.72
27805;BME280;15183;51.350;11.102;2023-04-21T06:07:31;100115.00;;;16.05;63.81
27805;BME280;15183;51.350;11.102;2023-04-21T06:09:57;100098.97;;;16.05;63.68
27805;BME280;15183;51.350;11.102;2023-04-21T06:12:23;100107.38;;;16.19;63.72
27805;BME280;15183;51.350;11.102;2023-04-21T06:14:50;100045.50;;;16.00;63.79
27805;BME280;15183;51.350;11.102;2023-04-21T06:17:16;100109.22;;;16.56;63.82
27805;BME280;15183;51.350;11.102;2023-04-21T06:19:43;100114.41;;;16.73;63.25
27805;BME280;15183;51.350;11.102;2023-04-21T06:22:10;100074.78;;;16.65;63.21
27805;BME280;15183;51.350;11.102;2023-04-21T06:24:36;100075.66;;;16.81;62.16
27805;BME280;15183;51.350;11.102;2023-04-21T06:27:05;100084.28;;;16.99;62.22
27805;BME280;15183;51.350;11.102;2023-04-21T06:29:34;100100.97;;;17.16;62.13
27805;BME280;15183;51.350;11.102;2023-04-21T06:32:01;100098.59;;;17.25;62.01
27805;BME280;15183;51.350;11.102;2023-04-21T06:34:30;100104.75;;;17.41;61.66
27805;BME280;15183;51.350;11.102;2023-04-21T06:36:56;100090.34;;;17.47;61.11
27805;BME280;15183;51.350;11.102;2023-04-21T06:39:22;100079.63;;;17.47;60.29
27805;BME280;15183;51.350;11.102;2023-04-21T06:41:49;100106.13;;;17.59;59.81
27805;BME280;15183;51.350;11.102;2023-04-21T06:44:15;100061.13;;;17.35;59.20
27805;BME280;15183;51.350;11.102;2023-04-21T06:46:42;100096.25;;;17.60;59.18
27805;BME280;15183;51.350;11.102;2023-04-21T06:49:08;100077.47;;;17.49;59.52
27805;BME280;15183;51.350;11.102;2023-04-21T06:51:35;100099.75;;;17.71;58.13
27805;BME280;15183;51.350;11.102;2023-04-21T06:54:03;100064.09;;;17.49;58.46
27805;BME280;15183;51.350;11.102;2023-04-21T06:56:29;100089.81;;;17.66;57.85
27805;BME280;15183;51.350;11.102;2023-04-21T06:58:56;100076.94;;;17.68;58.04
27805;BME280;15183;51.350;11.102;2023-04-21T07:01:22;100075.88;;;17.64;58.06
27805;BME280;15183;51.350;11.102;2023-04-21T07:03:51;100078.03;;;17.72;57.90
27805;BME280;15183;51.350;11.102;2023-04-21T07:06:18;100075.34;;;17.72;57.56
27805;BME280;15183;51.350;11.102;2023-04-21T07:08:44;100074.28;;;17.73;56.89
27805;BME280;15183;51.350;11.102;2023-04-21T07:11:11;100072.13;;;17.65;57.18
27805;BME280;15183;51.350;11.102;2023-04-21T07:13:37;100074.81;;;17.70;56.99
27805;BME280;15183;51.350;11.102;2023-04-21T07:16:04;100067.84;;;17.74;56.89
27805;BME280;15183;51.350;11.102;2023-04-21T07:18:30;100011.56;;;17.33;56.65
27805;BME280;15183;51.350;11.102;2023-04-21T07:20:58;100077.22;;;17.87;56.82
27805;BME280;15183;51.350;11.102;2023-04-21T07:23:24;100071.84;;;17.92;56.35
27805;BME280;15183;51.350;11.102;2023-04-21T07:25:51;100096.03;;;18.08;56.35
27805;BME280;15183;51.350;11.102;2023-04-21T07:28:17;100062.75;;;17.93;55.90
27805;BME280;15183;51.350;11.102;2023-04-21T07:30:44;100026.03;;;17.78;55.78
27805;BME280;15183;51.350;11.102;2023-04-21T07:33:10;100046.41;;;17.85;56.74
27805;BME280;15183;51.350;11.102;2023-04-21T07:35:36;100075.59;;;18.28;56.03
27805;BME280;15183;51.350;11.102;2023-04-21T07:38:03;100091.41;;;18.40;56.09
27805;BME280;15183;51.350;11.102;2023-04-21T07:40:29;100062.94;;;18.49;56.34
27805;BME280;15183;51.350;11.102;2023-04-21T07:42:56;100070.41;;;18.68;56.32
27805;BME280;15183;51.350;11.102;2023-04-21T07:45:24;100067.44;;;18.79;56.41
27805;BME280;15183;51.350;11.102;2023-04-21T07:47:51;100058.00;;;18.82;56.20
27805;BME280;15183;51.350;11.102;2023-04-21T07:50:17;100080.19;;;19.08;56.03
27805;BME280;15183;51.350;11.102;2023-04-21T07:52:44;100078.78;;;19.21;56.26
27805;BME280;15183;51.350;11.102;2023-04-21T07:55:10;100072.81;;;19.30;56.61
27805;BME280;15183;51.350;11.102;2023-04-21T07:57:37;100049.16;;;19.32;56.25
27805;BME280;15183;51.350;11.102;2023-04-21T08:00:06;100061.06;;;19.60;55.69
27805;BME280;15183;51.350;11.102;2023-04-21T08:02:33;100048.38;;;19.71;55.90
27805;BME280;15183;51.350;11.102;2023-04-21T08:04:59;100068.50;;;20.08;54.56
27805;BME280;15183;51.350;11.102;2023-04-21T08:07:26;100028.81;;;19.90;54.58
27805;BME280;15183;51.350;11.102;2023-04-21T08:09:52;100064.31;;;20.21;54.29
27805;BME280;15183;51.350;11.102;2023-04-21T08:12:18;100074.94;;;20.37;54.18
27805;BME280;15183;51.350;11.102;2023-04-21T08:14:45;100056.16;;;20.32;53.68
27805;BME280;15183;51.350;11.102;2023-04-21T08:17:11;100025.81;;;20.26;53.04
27805;BME280;15183;51.350;11.102;2023-04-21T08:19:38;100043.69;;;20.41;52.34
27805;BME280;15183;51.350;11.102;2023-04-21T08:22:04;100064.75;;;20.58;53.30
27805;BME280;15183;51.350;11.102;2023-04-21T08:24:31;100060.31;;;20.67;52.48
27805;BME280;15183;51.350;11.102;2023-04-21T08:26:58;100054.44;;;20.65;51.75
27805;BME280;15183;51.350;11.102;2023-04-21T08:29:24;100024.88;;;20.60;51.77
27805;BME280;15183;51.350;11.102;2023-04-21T08:31:50;100039.75;;;20.77;50.78
27805;BME280;15183;51.350;11.102;2023-04-21T08:34:17;100029.78;;;20.77;49.64
27805;BME280;15183;51.350;11.102;2023-04-21T08:36:45;100039.69;;;20.82;50.32
27805;BME280;15183;51.350;11.102;2023-04-21T08:39:14;100025.69;;;20.85;48.92
27805;BME280;15183;51.350;11.102;2023-04-21T08:41:41;100015.00;;;20.75;47.99
27805;BME280;15183;51.350;11.102;2023-04-21T08:44:08;100038.63;;;20.83;48.29
27805;BME280;15183;51.350;11.102;2023-04-21T08:46:36;100042.34;;;20.87;48.71
27805;BME280;15183;51.350;11.102;2023-04-21T08:49:04;100044.47;;;20.90;48.99
27805;BME280;15183;51.350;11.102;2023-04-21T08:51:30;100045.41;;;21.00;47.99
27805;BME280;15183;51.350;11.102;2023-04-21T08:53:59;99997.47;;;20.77;48.17
27805;BME280;15183;51.350;11.102;2023-04-21T08:56:26;100014.03;;;20.90;48.24
27805;BME280;15183;51.350;11.102;2023-04-21T08:58:52;100041.97;;;21.13;48.00
27805;BME280;15183;51.350;11.102;2023-04-21T09:01:19;100015.19;;;21.03;47.21
27805;BME280;15183;51.350;11.102;2023-04-21T09:03:45;100027.41;;;21.14;47.08
27805;BME280;15183;51.350;11.102;2023-04-21T09:06:12;99998.53;;;21.01;47.05
27805;BME280;15183;51.350;11.102;2023-04-21T09:08:51;100013.44;;;21.12;45.87
27805;BME280;15183;51.350;11.102;2023-04-21T09:11:21;100023.63;;;21.15;46.49
27805;BME280;15183;51.350;11.102;2023-04-21T09:13:47;100021.16;;;21.19;45.73
27805;BME280;15183;51.350;11.102;2023-04-21T09:16:18;100015.56;;;21.15;46.37
27805;BME280;15183;51.350;11.102;2023-04-21T09:18:46;99984.47;;;21.04;46.42
27805;BME280;15183;51.350;11.102;2023-04-21T09:21:15;100001.94;;;21.25;46.56
27805;BME280;15183;51.350;11.102;2023-04-21T09:23:46;100017.28;;;21.44;46.70
27805;BME280;15183;51.350;11.102;2023-04-21T09:26:14;100010.59;;;21.55;46.59
27805;BME280;15183;51.350;11.102;2023-04-21T09:28:43;100027.44;;;21.66;44.84
27805;BME280;15183;51.350;11.102;2023-04-21T09:31:19;100017.47;;;21.67;45.81
27805;BME280;15183;51.350;11.102;2023-04-21T09:33:52;99962.13;;;21.36;45.22
27805;BME280;15183;51.350;11.102;2023-04-21T09:36:24;100017.91;;;21.74;44.87
27805;BME280;15183;51.350;11.102;2023-04-21T09:39:00;100021.59;;;21.78;43.93
27805;BME280;15183;51.350;11.102;2023-04-21T09:41:30;100001.13;;;21.77;44.61
27805;BME280;15183;51.350;11.102;2023-04-21T09:43:57;99934.38;;;21.36;44.77
27805;BME280;15183;51.350;11.102;2023-04-21T09:46:28;100005.72;;;21.91;44.19
27805;BME280;15183;51.350;11.102;2023-04-21T09:48:55;100000.81;;;21.93;43.74
27805;BME280;15183;51.350;11.102;2023-04-21T09:51:24;99981.94;;;21.79;44.06
27805;BME280;15183;51.350;11.102;2023-04-21T09:53:57;100008.75;;;22.03;43.71
27805;BME280;15183;51.350;11.102;2023-04-21T09:56:25;100004.34;;;22.07;42.27
27805;BME280;15183;51.350;11.102;2023-04-21T09:58:57;99974.16;;;21.91;42.34
27805;BME280;15183;51.350;11.102;2023-04-21T10:01:26;99979.47;;;21.96;43.33
27805;BME280;15183;51.350;11.102;2023-04-21T10:03:54;99999.56;;;22.04;43.25
27805;BME280;15183;51.350;11.102;2023-04-21T10:06:22;99979.19;;;21.98;43.05
27805;BME280;15183;51.350;11.102;2023-04-21T10:08:50;99983.28;;;22.09;42.90
27805;BME280;15183;51.350;11.102;2023-04-21T10:11:17;99975.97;;;22.10;42.62
27805;BME280;15183;51.350;11.102;2023-04-21T10:13:44;99981.19;;;22.20;42.97
27805;BME280;15183;51.350;11.102;2023-04-21T10:16:11;99959.38;;;22.17;43.28
27805;BME280;15183;51.350;11.102;2023-04-21T10:18:44;99977.94;;;22.32;42.68
27805;BME280;15183;51.350;11.102;2023-04-21T10:21:19;99971.06;;;22.40;42.67
27805;BME280;15183;51.350;11.102;2023-04-21T10:23:52;99968.97;;;22.37;42.14
27805;BME280;15183;51.350;11.102;2023-04-21T10:28:51;99983.88;;;22.48;41.09
27805;BME280;15183;51.350;11.102;2023-04-21T10:39:37;99956.16;;;22.43;40.97
27805;BME280;15183;51.350;11.102;2023-04-21T10:42:25;99951.38;;;22.39;41.59
27805;BME280;15183;51.350;11.102;2023-04-21T10:47:39;99965.06;;;22.57;41.03
27805;BME280;15183;51.350;11.102;2023-04-21T10:50:19;99961.25;;;22.58;41.27
27805;BME280;15183;51.350;11.102;2023-04-21T10:53:07;99963.47;;;22.56;41.75
27805;BME280;15183;51.350;11.102;2023-04-21T10:55:38;99936.88;;;22.35;40.47
27805;BME280;15183;51.350;11.102;2023-04-21T10:58:06;99957.34;;;22.64;39.56
27805;BME280;15183;51.350;11.102;2023-04-21T11:00:35;99924.78;;;22.47;39.70
27805;BME280;15183;51.350;11.102;2023-04-21T11:03:06;99943.34;;;22.62;40.75
27805;BME280;15183;51.350;11.102;2023-04-21T11:05:40;99942.22;;;22.63;41.13
27805;BME280;15183;51.350;11.102;2023-04-21T11:08:15;99929.34;;;22.60;41.21
27805;BME280;15183;51.350;11.102;2023-04-21T11:13:10;99922.22;;;22.64;40.89
27805;BME280;15183;51.350;11.102;2023-04-21T11:15:36;99931.22;;;22.74;40.47
27805;BME280;15183;51.350;11.102;2023-04-21T11:18:04;99935.41;;;22.80;40.60
27805;BME280;15183;51.350;11.102;2023-04-21T11:20:30;99925.09;;;22.82;40.39
27805;BME280;15183;51.350;11.102;2023-04-21T11:22:57;99930.84;;;22.89;41.04
27805;BME280;15183;51.350;11.102;2023-04-21T11:25:23;99917.22;;;22.94;40.70
27805;BME280;15183;51.350;11.102;2023-04-21T11:27:56;99909.47;;;23.02;40.13
27805;BME280;15183;51.350;11.102;2023-04-21T11:30:32;99920.97;;;23.07;40.68
27805;BME280;15183;51.350;11.102;2023-04-21T11:32:59;99916.53;;;23.11;40.45
27805;BME280;15183;51.350;11.102;2023-04-21T11:35:25;99916.13;;;23.18;40.22
27805;BME280;15183;51.350;11.102;2023-04-21T11:37:54;99903.31;;;23.10;40.35
27805;BME280;15183;51.350;11.102;2023-04-21T11:40:20;99933.94;;;23.19;40.40
27805;BME280;15183;51.350;11.102;2023-04-21T11:42:47;99921.03;;;23.16;40.50
27805;BME280;15183;51.350;11.102;2023-04-21T11:45:18;99908.13;;;23.13;40.02
27805;BME280;15183;51.350;11.102;2023-04-21T11:47:45;99880.22;;;23.04;38.32
27805;BME280;15183;51.350;11.102;2023-04-21T11:50:11;99907.69;;;23.20;39.24
27805;BME280;15183;51.350;11.102;2023-04-21T11:52:54;99905.31;;;23.18;40.10
27805;BME280;15183;51.350;11.102;2023-04-21T11:55:21;99899.75;;;23.23;39.06
27805;BME280;15183;51.350;11.102;2023-04-21T11:57:49;99889.69;;;23.15;39.82
27805;BME280;15183;51.350;11.102;2023-04-21T12:00:17;99900.00;;;23.36;40.16
27805;BME280;15183;51.350;11.102;2023-04-21T12:02:44;99898.13;;;23.45;39.47
27805;BME280;15183;51.350;11.102;2023-04-21T12:05:18;99866.78;;;23.35;39.42
27805;BME280;15183;51.350;11.102;2023-04-21T12:07:45;99866.31;;;23.42;38.07
27805;BME280;15183;51.350;11.102;2023-04-21T12:10:17;99888.47;;;23.53;38.94
27805;BME280;15183;51.350;11.102;2023-04-21T12:12:44;99881.91;;;23.45;39.03
27805;BME280;15183;51.350;11.102;2023-04-21T12:15:20;99882.59;;;23.51;39.50
27805;BME280;15183;51.350;11.102;2023-04-21T12:17:51;99913.31;;;23.55;38.57
27805;BME280;15183;51.350;11.102;2023-04-21T12:20:23;99880.66;;;23.42;38.51
27805;BME280;15183;51.350;11.102;2023-04-21T12:22:50;99824.44;;;22.99;38.58
27805;BME280;15183;51.350;11.102;2023-04-21T12:25:17;99849.78;;;23.12;38.87
27805;BME280;15183;51.350;11.102;2023-04-21T12:28:02;99874.22;;;23.30;39.01
27805;BME280;15183;51.350;11.102;2023-04-21T12:30:28;99881.56;;;23.38;38.87
27805;BME280;15183;51.350;11.102;2023-04-21T12:32:54;99887.31;;;23.36;39.42
27805;BME280;15183;51.350;11.102;2023-04-21T12:35:21;99872.81;;;23.32;39.37
27805;BME280;15183;51.350;11.102;2023-04-21T12:37:48;99875.06;;;23.39;39.88
27805;BME280;15183;51.350;11.102;2023-04-21T12:40:14;99840.97;;;23.29;40.23
27805;BME280;15183;51.350;11.102;2023-04-21T12:42:41;99833.88;;;23.42;39.24
27805;BME280;15183;51.350;11.102;2023-04-21T12:45:08;99836.31;;;23.52;39.40
27805;BME280;15183;51.350;11.102;2023-04-21T12:47:35;99852.63;;;23.79;40.06
27805;BME280;15183;51.350;11.102;2023-04-21T12:50:03;99857.91;;;23.93;39.33
27805;BME280;15183;51.350;11.102;2023-04-21T12:52:29;99860.13;;;23.91;38.50
27805;BME280;15183;51.350;11.102;2023-04-21T12:54:55;99832.72;;;23.75;38.83
27805;BME280;15183;51.350;11.102;2023-04-21T12:57:22;99834.16;;;23.81;38.89
27805;BME280;15183;51.350;11.102;2023-04-21T12:59:48;99839.13;;;23.88;38.88
27805;BME280;15183;51.350;11.102;2023-04-21T13:02:15;99828.13;;;23.93;38.76